createdAt,value
2023-04-23T00:07:30.613Z,7.28
2023-04-23T00:10:19.996Z,9.23
2023-04-23T00:12:50.370Z,8.20
2023-04-23T00:17:53.345Z,8.10
2023-04-23T00:20:24.781Z,9.43
2023-04-23T00:22:56.596Z,7.00
2023-04-23T00:25:24.232Z,6.95
2023-04-23T00:27:53.953Z,8.73
2023-04-23T00:30:26.099Z,8.17
2023-04-23T00:32:58.430Z,9.15
2023-04-23T00:35:39.768Z,8.75
2023-04-23T00:38:08.240Z,9.80
2023-04-23T00:40:37.281Z,9.18
2023-04-23T00:43:10.898Z,9.45
2023-04-23T00:45:38.747Z,8.02
2023-04-23T00:48:10.400Z,9.25
2023-04-23T00:53:09.666Z,10.48
2023-04-23T00:55:43.623Z,9.32
2023-04-23T00:58:11.503Z,10.60
2023-04-23T01:00:47.418Z,10.55
2023-04-23T01:03:20.795Z,8.80
2023-04-23T01:05:52.405Z,8.93
2023-04-23T01:08:37.639Z,10.38
2023-04-23T01:11:08.744Z,8.35
2023-04-23T01:13:37.043Z,11.50
2023-04-23T01:16:06.322Z,11.88
2023-04-23T01:18:41.726Z,12.90
2023-04-23T01:21:12.906Z,10.25
2023-04-23T01:23:47.611Z,10.68
2023-04-23T01:26:18.950Z,11.52
2023-04-23T01:31:36.477Z,11.43
2023-04-23T01:39:31.143Z,11.50
2023-04-23T01:42:03.979Z,11.18
2023-04-23T01:44:31.419Z,11.68
2023-04-23T01:46:58.546Z,14.30
2023-04-23T01:49:25.685Z,12.55
2023-04-23T01:51:54.419Z,12.88
2023-04-23T01:54:21.633Z,13.02
2023-04-23T01:56:48.290Z,16.05
2023-04-23T01:59:19.304Z,13.30
2023-04-23T02:01:47.485Z,14.13
2023-04-23T02:04:16.467Z,13.68
2023-04-23T02:06:50.290Z,14.50
2023-04-23T02:09:17.196Z,16.15
2023-04-23T02:11:52.191Z,16.17
2023-04-23T02:14:19.685Z,17.08
2023-04-23T02:16:48.194Z,17.15
2023-04-23T02:19:21.989Z,18.15
2023-04-23T02:21:52.100Z,18.17
2023-04-23T02:24:20.772Z,16.27
2023-04-23T02:26:49.399Z,17.02
2023-04-23T02:29:19.794Z,15.48
2023-04-23T02:31:46.822Z,16.42
2023-04-23T02:34:14.046Z,16.58
2023-04-23T02:36:42.233Z,20.27
2023-04-23T02:39:09.265Z,15.73
2023-04-23T02:41:36.357Z,17.55
2023-04-23T02:44:12.232Z,16.13
2023-04-23T02:46:41.483Z,15.82
2023-04-23T02:49:09.554Z,17.10
2023-04-23T02:51:37.849Z,16.08
2023-04-23T02:54:05.914Z,18.58
2023-04-23T02:56:32.909Z,19.63
2023-04-23T02:59:02.910Z,16.90
2023-04-23T03:01:30.148Z,17.08
2023-04-23T03:03:57.164Z,17.27
2023-04-23T03:06:25.004Z,17.02
2023-04-23T03:08:53.085Z,16.98
2023-04-23T03:11:19.940Z,15.90
2023-04-23T03:13:47.426Z,17.33
2023-04-23T03:16:14.754Z,16.13
2023-04-23T03:18:45.697Z,16.33
2023-04-23T03:21:13.452Z,17.10
2023-04-23T03:23:41.676Z,15.38
2023-04-23T03:26:08.476Z,15.13
2023-04-23T03:28:35.464Z,17.40
2023-04-23T03:31:03.960Z,16.15
2023-04-23T03:33:32.163Z,16.23
2023-04-23T03:36:01.116Z,16.38
2023-04-23T03:38:32.393Z,15.35
2023-04-23T03:41:00.771Z,14.85
2023-04-23T03:43:28.034Z,12.98
2023-04-23T03:45:56.169Z,13.15
2023-04-23T03:48:22.856Z,14.52
2023-04-23T03:50:49.851Z,13.55
2023-04-23T03:53:17.963Z,15.02
2023-04-23T03:55:44.932Z,14.82
2023-04-23T03:58:11.849Z,16.70
2023-04-23T04:00:38.496Z,14.02
2023-04-23T04:03:05.733Z,12.05
2023-04-23T04:05:32.642Z,13.60
2023-04-23T04:08:02.833Z,15.30
2023-04-23T04:10:29.777Z,15.93
2023-04-23T04:12:57.233Z,14.10
2023-04-23T04:15:26.534Z,13.63
2023-04-23T04:17:53.309Z,15.38
2023-04-23T04:20:23.705Z,14.55
2023-04-23T04:22:50.732Z,16.33
2023-04-23T04:25:17.719Z,14.15
2023-04-23T04:27:44.640Z,13.32
2023-04-23T04:30:12.211Z,15.75
2023-04-23T04:32:40.489Z,13.10
2023-04-23T04:35:10.092Z,15.45
2023-04-23T04:37:37.020Z,16.75
2023-04-23T04:40:05.193Z,15.18
2023-04-23T04:42:31.975Z,14.18
2023-04-23T04:44:59.585Z,17.10
2023-04-23T04:47:26.577Z,14.05
2023-04-23T04:49:57.975Z,16.13
2023-04-23T04:52:25.705Z,15.00
2023-04-23T04:54:55.460Z,15.68
2023-04-23T04:57:22.980Z,16.57
2023-04-23T04:59:52.775Z,14.27
2023-04-23T05:02:24.707Z,16.23
2023-04-23T05:04:54.177Z,15.98
2023-04-23T05:07:20.974Z,15.80
2023-04-23T05:09:50.101Z,15.77
2023-04-23T05:12:16.932Z,15.40
2023-04-23T05:14:43.810Z,13.50
2023-04-23T05:17:12.087Z,15.70
2023-04-23T05:19:38.830Z,13.70
2023-04-23T05:22:06.800Z,14.93
2023-04-23T05:24:33.544Z,12.00
2023-04-23T05:27:05.524Z,12.32
2023-04-23T05:29:32.231Z,12.82
2023-04-23T05:32:00.294Z,11.77
2023-04-23T05:34:27.953Z,13.68
2023-04-23T05:36:54.811Z,11.00
2023-04-23T05:39:24.441Z,11.95
2023-04-23T05:41:51.314Z,11.50
2023-04-23T05:44:19.673Z,11.85
2023-04-23T05:46:46.493Z,11.52
2023-04-23T05:49:15.192Z,10.15
2023-04-23T05:51:41.841Z,9.98
2023-04-23T05:54:08.709Z,11.38
2023-04-23T05:56:36.465Z,10.10
2023-04-23T05:59:03.278Z,11.13
2023-04-23T06:01:33.172Z,8.93
2023-04-23T06:04:06.059Z,9.93
2023-04-23T06:06:57.297Z,10.00
2023-04-23T06:09:25.859Z,10.25
2023-04-23T06:11:53.865Z,10.00
2023-04-23T06:14:22.046Z,10.93
2023-04-23T06:16:52.888Z,8.93
2023-04-23T06:19:20.669Z,8.07
2023-04-23T06:21:57.720Z,8.98
2023-04-23T06:24:24.778Z,8.90
2023-04-23T06:26:59.882Z,9.07
2023-04-23T06:35:15.850Z,8.43
2023-04-23T06:37:42.846Z,7.97
2023-04-23T06:43:09.968Z,7.90
2023-04-23T06:45:37.770Z,9.23
2023-04-23T06:51:02.678Z,10.93
2023-04-23T06:56:29.087Z,9.20
2023-04-23T07:30:54.210Z,7.28
2023-04-23T08:05:57.033Z,7.93
2023-04-23T08:08:31.000Z,7.25
2023-04-23T08:28:27.353Z,11.40
2023-04-23T08:36:30.865Z,11.60
2023-04-23T08:42:18.953Z,10.55
2023-04-23T08:50:32.215Z,9.82
2023-04-23T08:55:42.847Z,7.15
2023-04-23T09:07:32.687Z,7.43
2023-04-23T09:12:57.891Z,7.95
2023-04-23T09:21:11.527Z,6.30
2023-04-23T09:32:27.865Z,5.45
2023-04-23T09:41:28.962Z,6.25
2023-04-23T09:53:00.435Z,3.53
2023-04-23T10:02:05.297Z,3.83
2023-04-23T10:10:14.036Z,3.53
2023-04-23T10:16:42.032Z,4.32
2023-04-23T10:40:12.160Z,5.80
2023-04-23T10:42:47.785Z,4.32
2023-04-23T11:11:23.027Z,3.05
2023-04-23T12:17:27.878Z,6.25
2023-04-23T12:21:01.293Z,4.53
2023-04-23T12:26:41.947Z,6.75
2023-04-23T12:29:24.619Z,3.45
2023-04-23T12:31:54.848Z,4.22
2023-04-23T12:34:23.495Z,3.80
2023-04-23T12:36:57.923Z,5.05
2023-04-23T12:42:19.115Z,4.65
2023-04-23T12:44:53.564Z,3.95
2023-04-23T12:47:22.051Z,3.97
2023-04-23T12:53:20.796Z,4.50
2023-04-23T13:01:46.334Z,4.25
2023-04-23T13:04:38.768Z,4.43
2023-04-23T13:07:27.457Z,4.47
2023-04-23T13:15:49.181Z,3.63
2023-04-23T13:18:23.302Z,5.13
2023-04-23T13:23:41.965Z,4.75
2023-04-23T13:26:41.785Z,4.00
2023-04-23T13:29:13.487Z,2.50
2023-04-23T13:34:51.789Z,3.70
2023-04-23T13:37:28.359Z,4.65
2023-04-23T13:43:12.138Z,2.38
2023-04-23T13:54:02.867Z,1.45
2023-04-23T13:56:43.207Z,2.45
2023-04-23T13:59:20.233Z,1.80
2023-04-23T14:02:09.904Z,4.03
2023-04-23T14:04:47.347Z,2.08
2023-04-23T14:07:19.878Z,2.85
2023-04-23T14:09:56.299Z,1.77
2023-04-23T14:12:29.810Z,2.40
2023-04-23T14:15:11.847Z,1.85
2023-04-23T14:24:24.240Z,1.42
2023-04-23T14:27:08.726Z,1.17
2023-04-23T14:30:12.894Z,1.40
2023-04-23T14:32:43.907Z,2.33
2023-04-23T14:35:17.879Z,1.52
2023-04-23T14:37:48.074Z,1.90
2023-04-23T14:43:36.203Z,1.83
2023-04-23T14:46:12.724Z,2.42
2023-04-23T14:54:09.773Z,2.65
2023-04-23T14:56:38.171Z,1.98
2023-04-23T14:59:33.762Z,1.80
2023-04-23T15:02:15.181Z,1.45
2023-04-23T15:07:48.237Z,3.40
2023-04-23T15:10:23.214Z,2.95
2023-04-23T15:13:18.715Z,2.17
2023-04-23T15:16:06.566Z,1.77
2023-04-23T15:18:43.232Z,3.65
2023-04-23T15:21:20.527Z,2.97
2023-04-23T15:24:03.133Z,2.80
2023-04-23T15:26:40.941Z,2.63
2023-04-23T15:29:23.126Z,4.25
2023-04-23T15:32:17.381Z,2.20
2023-04-23T15:37:38.824Z,2.38
2023-04-23T15:43:21.645Z,1.55
2023-04-23T15:48:48.659Z,3.60
2023-04-23T15:51:22.086Z,4.07
2023-04-23T15:54:09.194Z,2.60
2023-04-23T15:56:56.415Z,2.22
2023-04-23T15:59:34.109Z,2.40
2023-04-23T16:02:22.652Z,2.72
2023-04-23T16:10:37.864Z,2.85
2023-04-23T16:13:50.247Z,2.00
2023-04-23T16:22:54.703Z,4.82
2023-04-23T16:28:44.567Z,1.98
2023-04-23T16:53:00.161Z,5.78
2023-04-23T17:01:09.746Z,4.50
2023-04-23T17:28:29.324Z,4.72
2023-04-23T17:34:44.063Z,4.47
2023-04-23T17:48:56.166Z,5.93
2023-04-23T17:57:23.736Z,5.53
2023-04-23T18:00:16.447Z,5.22
2023-04-23T18:02:55.514Z,5.63
2023-04-23T18:08:47.933Z,4.63
2023-04-23T18:11:33.253Z,9.75
2023-04-23T20:06:39.080Z,4.00
2023-04-23T20:12:36.191Z,4.70
2023-04-23T20:26:54.789Z,3.10
2023-04-23T20:29:23.005Z,4.60
2023-04-23T20:31:53.214Z,4.65
2023-04-23T20:34:22.466Z,2.50
2023-04-23T20:37:06.286Z,4.57
2023-04-23T20:45:01.892Z,3.40
2023-04-23T20:47:29.185Z,4.05
2023-04-23T20:50:06.018Z,3.92
2023-04-23T20:52:38.294Z,4.07
2023-04-23T20:55:13.857Z,4.55
2023-04-23T20:57:41.441Z,4.65
2023-04-23T21:00:25.015Z,4.13
2023-04-23T21:02:56.038Z,3.38
2023-04-23T21:16:06.187Z,3.40
2023-04-23T21:18:39.953Z,3.42
2023-04-23T21:21:18.511Z,4.07
2023-04-23T21:23:49.950Z,2.88
2023-04-23T21:26:29.834Z,8.23
2023-04-23T21:29:05.678Z,2.30
2023-04-23T21:31:59.837Z,3.10
2023-04-23T21:34:28.617Z,2.17
2023-04-23T21:37:00.487Z,3.50
2023-04-23T21:39:27.520Z,1.95
2023-04-23T21:41:59.696Z,2.13
2023-04-23T21:44:33.334Z,2.90
2023-04-23T21:47:06.249Z,2.78
2023-04-23T21:49:34.925Z,4.63
2023-04-23T21:52:11.451Z,1.55
2023-04-23T21:54:39.528Z,1.65
2023-04-23T21:59:51.438Z,1.90
2023-04-23T22:02:23.763Z,1.88
2023-04-23T22:05:06.135Z,1.35
2023-04-23T22:07:43.471Z,2.47
2023-04-23T22:10:41.197Z,1.67
2023-04-23T22:16:53.208Z,2.47
2023-04-23T22:19:22.802Z,2.40
2023-04-23T22:21:53.990Z,2.40
2023-04-23T22:24:23.438Z,2.85
2023-04-23T22:26:50.041Z,1.35
2023-04-23T22:29:17.400Z,1.20
2023-04-23T22:31:46.391Z,1.85
2023-04-23T22:34:14.930Z,3.80
2023-04-23T22:36:43.878Z,1.75
2023-04-23T22:39:14.790Z,1.20
2023-04-23T22:41:43.069Z,2.65
2023-04-23T22:44:10.246Z,2.13
2023-04-23T22:46:38.409Z,1.60
2023-04-23T22:49:10.474Z,2.05
2023-04-23T22:51:44.721Z,1.63
2023-04-23T23:02:12.698Z,2.20
2023-04-23T23:04:46.447Z,4.30
2023-04-23T23:07:36.912Z,2.10
2023-04-23T23:12:38.070Z,1.42
2023-04-23T23:15:10.612Z,1.45
2023-04-23T23:17:37.570Z,2.63
2023-04-23T23:20:11.627Z,1.05
2023-04-23T23:22:40.434Z,2.15
2023-04-23T23:25:21.335Z,3.53
2023-04-23T23:27:48.460Z,1.02
2023-04-23T23:30:16.126Z,1.75
2023-04-23T23:32:43.266Z,1.52
2023-04-23T23:35:10.334Z,2.67
2023-04-23T23:37:37.975Z,2.03
2023-04-23T23:40:09.558Z,1.20
2023-04-23T23:42:37.934Z,0.77
2023-04-23T23:45:07.914Z,1.15
2023-04-23T23:47:36.944Z,1.47
2023-04-23T23:50:13.489Z,2.33
2023-04-23T23:52:41.988Z,2.83
2023-04-23T23:57:51.840Z,2.03
